createdAt,value
2022-09-05T00:00:23.033Z,-69
2022-09-05T00:03:36.192Z,-68
2022-09-05T00:06:12.312Z,-69
2022-09-05T00:09:27.752Z,-69
2022-09-05T00:12:00.987Z,-69
2022-09-05T00:15:16.055Z,-69
2022-09-05T00:22:09.541Z,-68
2022-09-05T00:24:30.779Z,-68
2022-09-05T00:25:39.169Z,-68
2022-09-05T00:28:49.512Z,-69
2022-09-05T00:32:04.820Z,-69
2022-09-05T00:35:09.950Z,-69
2022-09-05T00:37:50.927Z,-69
2022-09-05T00:40:47.658Z,-69
2022-09-05T00:43:32.442Z,-69
2022-09-05T00:46:10.450Z,-69
2022-09-05T00:49:25.620Z,-69
2022-09-05T00:52:38.078Z,-69
2022-09-05T00:55:57.838Z,-69
2022-09-05T00:59:11.548Z,-68
2022-09-05T01:02:21.402Z,-68
2022-09-05T01:05:23.321Z,-69
2022-09-05T01:08:47.169Z,-68
2022-09-05T01:12:12.311Z,-68
2022-09-05T01:15:32.352Z,-68
2022-09-05T01:18:53.296Z,-68
2022-09-05T01:22:35.061Z,-68
2022-09-05T01:25:54.763Z,-68
2022-09-05T01:29:16.181Z,-68
2022-09-05T01:32:56.801Z,-68
2022-09-05T01:36:23.240Z,-68
2022-09-05T01:40:14.350Z,-68
2022-09-05T01:43:14.821Z,-68
2022-09-05T01:46:31.051Z,-68
2022-09-05T01:49:25.185Z,-68
2022-09-05T01:53:06.312Z,-68
2022-09-05T01:56:15.255Z,-68
2022-09-05T01:59:01.100Z,-68
2022-09-05T02:02:50.757Z,-68
2022-09-05T02:05:58.748Z,-68
2022-09-05T02:09:29.983Z,-68
2022-09-05T02:12:20.146Z,-69
2022-09-05T02:15:37.508Z,-69
2022-09-05T02:18:21.159Z,-69
2022-09-05T02:20:59.378Z,-69
2022-09-05T02:24:04.649Z,-69
2022-09-05T02:28:03.663Z,-69
2022-09-05T02:30:23.322Z,-69
2022-09-05T02:33:25.466Z,-69
2022-09-05T02:36:54.752Z,-69
2022-09-05T02:45:09.389Z,-69
2022-09-05T02:45:19.000Z,-69
2022-09-05T02:47:13.297Z,-69
2022-09-05T02:54:27.778Z,-69
2022-09-05T02:57:34.739Z,-69
2022-09-05T02:57:37.052Z,-69
2022-09-05T03:00:30.981Z,-69
2022-09-05T03:03:43.768Z,-69
2022-09-05T03:07:07.808Z,-69
2022-09-05T03:10:06.940Z,-69
2022-09-05T03:13:56.339Z,-69
2022-09-05T03:17:09.388Z,-69
2022-09-05T03:19:54.889Z,-69
2022-09-05T03:23:15.017Z,-69
2022-09-05T03:26:27.324Z,-69
2022-09-05T03:30:06.104Z,-69
2022-09-05T03:33:25.166Z,-69
2022-09-05T03:37:08.382Z,-69
2022-09-05T03:40:31.251Z,-69
2022-09-05T03:44:10.096Z,-68
2022-09-05T03:47:42.476Z,-68
2022-09-05T03:57:06.170Z,-68
2022-09-05T03:57:23.305Z,-68
2022-09-05T03:59:29.861Z,-68
2022-09-05T04:02:40.434Z,-68
2022-09-05T04:08:08.729Z,-68
2022-09-05T04:08:57.145Z,-68
2022-09-05T04:12:18.318Z,-68
2022-09-05T04:15:28.261Z,-68
2022-09-05T04:18:30.569Z,-68
2022-09-05T04:21:27.821Z,-69
2022-09-05T04:24:37.020Z,-69
2022-09-05T04:27:42.420Z,-69
2022-09-05T04:30:44.539Z,-69
2022-09-05T04:33:55.249Z,-69
2022-09-05T04:36:38.217Z,-69
2022-09-05T04:39:20.698Z,-69
2022-09-05T04:42:24.449Z,-69
2022-09-05T04:45:07.140Z,-69
2022-09-05T04:47:52.304Z,-69
2022-09-05T04:50:24.183Z,-68
2022-09-05T04:53:29.801Z,-68
2022-09-05T04:55:59.944Z,-68
2022-09-05T05:00:04.169Z,-68
2022-09-05T05:06:03.969Z,-69
2022-09-05T05:06:11.538Z,-68
2022-09-05T05:08:37.843Z,-68
2022-09-05T05:16:18.628Z,-68
2022-09-05T05:18:02.614Z,-68
2022-09-05T05:18:08.472Z,-68
2022-09-05T05:21:16.503Z,-68
2022-09-05T05:24:13.472Z,-68
2022-09-05T05:27:37.457Z,-68
2022-09-05T05:30:11.804Z,-69
2022-09-05T05:32:49.317Z,-69
2022-09-05T05:35:33.276Z,-69
2022-09-05T05:38:42.709Z,-69
2022-09-05T05:41:50.233Z,-69
2022-09-05T05:44:36.723Z,-69
2022-09-05T05:47:31.800Z,-68
2022-09-05T05:50:52.646Z,-68
2022-09-05T05:54:16.959Z,-68
2022-09-05T05:57:26.580Z,-67
2022-09-05T06:00:51.421Z,-68
2022-09-05T06:04:02.732Z,-69
2022-09-05T06:07:12.916Z,-68
2022-09-05T06:14:50.394Z,-68
2022-09-05T06:15:10.144Z,-68
2022-09-05T06:18:28.991Z,-69
2022-09-05T06:22:19.371Z,-69
2022-09-05T06:26:01.021Z,-69
2022-09-05T06:29:08.566Z,-66
2022-09-05T06:32:22.074Z,-62
2022-09-05T06:35:29.083Z,-62
2022-09-05T06:38:42.986Z,-62
2022-09-05T06:41:51.336Z,-62
2022-09-05T06:44:40.396Z,-62
2022-09-05T06:47:33.801Z,-62
2022-09-05T06:50:26.780Z,-62
2022-09-05T06:53:34.899Z,-62
2022-09-05T06:56:40.282Z,-62
2022-09-05T06:59:52.448Z,-62
2022-09-05T07:03:20.516Z,-62
2022-09-05T07:06:41.439Z,-62
2022-09-05T07:10:21.998Z,-62
2022-09-05T07:13:17.189Z,-62
2022-09-05T07:16:41.822Z,-62
2022-09-05T07:19:49.632Z,-62
2022-09-05T07:23:46.052Z,-62
2022-09-05T07:25:51.798Z,-61
2022-09-05T07:28:28.511Z,-61
2022-09-05T07:31:14.543Z,-63
2022-09-05T07:34:32.521Z,-63
2022-09-05T07:37:26.516Z,-64
2022-09-05T07:40:11.225Z,-63
2022-09-05T07:43:09.958Z,-63
2022-09-05T07:45:56.172Z,-64
2022-09-05T07:48:34.796Z,-63
2022-09-05T07:56:48.948Z,-63
2022-09-05T07:57:01.034Z,-63
2022-09-05T07:57:30.036Z,-63
2022-09-05T08:00:26.387Z,-64
2022-09-05T08:03:10.453Z,-63
2022-09-05T08:05:49.595Z,-63
2022-09-05T08:08:25.650Z,-63
2022-09-05T08:11:22.629Z,-63
2022-09-05T08:14:43.694Z,-63
2022-09-05T08:17:19.712Z,-64
2022-09-05T08:20:36.849Z,-64
2022-09-05T08:23:50.311Z,-63
2022-09-05T08:27:16.077Z,-63
2022-09-05T08:30:24.327Z,-64
2022-09-05T08:33:11.326Z,-63
2022-09-05T08:36:19.288Z,-63
2022-09-05T08:38:46.938Z,-64
2022-09-05T08:41:50.445Z,-63
2022-09-05T08:46:43.588Z,-64
2022-09-05T08:48:03.285Z,-63
2022-09-05T08:51:28.744Z,-63
2022-09-05T08:54:46.584Z,-64
2022-09-05T08:57:46.586Z,-64
2022-09-05T09:00:24.354Z,-64
2022-09-05T09:03:29.915Z,-62
2022-09-05T09:06:59.437Z,-63
2022-09-05T09:10:26.269Z,-62
2022-09-05T09:13:38.829Z,-62
2022-09-05T09:16:41.015Z,-62
2022-09-05T09:19:46.161Z,-64
2022-09-05T09:23:00.909Z,-64
2022-09-05T09:26:11.849Z,-63
2022-09-05T09:29:12.413Z,-63
2022-09-05T09:32:05.980Z,-63
2022-09-05T09:35:31.628Z,-63
2022-09-05T09:38:28.761Z,-64
2022-09-05T09:42:10.149Z,-64
2022-09-05T09:45:28.595Z,-63
2022-09-05T09:48:55.514Z,-62
2022-09-05T09:52:07.903Z,-64
2022-09-05T09:55:52.121Z,-63
2022-09-05T09:58:49.231Z,-62
2022-09-05T10:03:51.298Z,-63
2022-09-05T10:10:48.188Z,-62
2022-09-05T10:10:52.849Z,-63
2022-09-05T10:13:12.126Z,-62
2022-09-05T10:17:05.557Z,-62
2022-09-05T10:23:50.421Z,-60
2022-09-05T10:27:25.148Z,-60
2022-09-05T10:30:26.659Z,-60
2022-09-05T10:35:13.148Z,-60
2022-09-05T10:36:39.736Z,-60
2022-09-05T10:39:26.300Z,-60
2022-09-05T10:42:31.397Z,-60
2022-09-05T10:45:13.684Z,-60
2022-09-05T10:48:25.177Z,-60
2022-09-05T10:51:39.820Z,-60
2022-09-05T10:55:14.860Z,-60
2022-09-05T11:01:19.396Z,-60
2022-09-05T11:02:34.731Z,-60
2022-09-05T11:05:28.629Z,-60
2022-09-05T11:08:35.874Z,-60
2022-09-05T11:11:32.579Z,-60
2022-09-05T11:14:26.989Z,-60
2022-09-05T11:17:54.136Z,-60
2022-09-05T11:21:24.449Z,-60
2022-09-05T11:24:35.883Z,-60
2022-09-05T11:27:43.583Z,-60
2022-09-05T11:30:33.514Z,-60
2022-09-05T11:36:56.784Z,-60
2022-09-05T11:39:57.411Z,-60
2022-09-05T11:41:16.654Z,-60
2022-09-05T11:44:35.644Z,-60
2022-09-05T11:47:54.395Z,-60
2022-09-05T11:51:33.375Z,-60
2022-09-05T11:54:41.874Z,-60
2022-09-05T11:57:44.600Z,-60
2022-09-05T12:01:42.682Z,-60
2022-09-05T12:05:49.774Z,-60
2022-09-05T12:08:31.487Z,-61
2022-09-05T12:11:59.867Z,-61
2022-09-05T12:15:11.942Z,-60
2022-09-05T12:18:02.810Z,-60
2022-09-05T12:21:38.224Z,-60
2022-09-05T12:25:26.362Z,-60
2022-09-05T12:29:09.584Z,-61
2022-09-05T12:30:57.203Z,-61
2022-09-05T12:36:13.057Z,-61
2022-09-05T12:40:16.523Z,-61
2022-09-05T12:41:35.992Z,-61
2022-09-05T12:43:57.365Z,-60
2022-09-05T12:46:23.806Z,-61
2022-09-05T12:49:11.653Z,-61
2022-09-05T12:51:56.061Z,-61
2022-09-05T12:54:35.760Z,-60
2022-09-05T13:02:56.472Z,-60
2022-09-05T13:03:08.111Z,-60
2022-09-05T13:03:32.616Z,-61
2022-09-05T13:06:25.730Z,-60
2022-09-05T13:09:16.658Z,-62
2022-09-05T13:14:56.696Z,-61
2022-09-05T13:15:23.604Z,-61
2022-09-05T13:18:21.112Z,-61
2022-09-05T13:21:06.127Z,-61
2022-09-05T13:24:06.168Z,-61
2022-09-05T13:26:54.975Z,-61
2022-09-05T13:30:00.529Z,-61
2022-09-05T13:37:59.805Z,-61
2022-09-05T13:38:15.038Z,-61
2022-09-05T13:39:04.866Z,-61
2022-09-05T13:42:01.517Z,-61
2022-09-05T13:44:35.253Z,-61
2022-09-05T13:47:45.588Z,-61
2022-09-05T13:50:36.093Z,-61
2022-09-05T13:53:51.974Z,-61
2022-09-05T13:56:31.584Z,-61
2022-09-05T13:59:14.203Z,-64
2022-09-05T14:11:11.812Z,-64
2022-09-05T14:20:31.142Z,-64
2022-09-05T14:23:10.588Z,-65
2022-09-05T14:25:55.126Z,-63
2022-09-05T14:28:46.462Z,-65
2022-09-05T14:37:08.392Z,-64
2022-09-05T14:37:53.015Z,-65
2022-09-05T14:38:20.711Z,-64
2022-09-05T14:41:53.253Z,-65
2022-09-05T14:45:22.907Z,-65
2022-09-05T14:48:53.691Z,-63
2022-09-05T14:51:36.105Z,-64
2022-09-05T15:02:33.969Z,-65
2022-09-05T15:02:41.599Z,-65
2022-09-05T15:06:40.656Z,-63
2022-09-05T15:11:24.362Z,-63
2022-09-05T15:12:31.233Z,-65
2022-09-05T15:15:48.338Z,-65
2022-09-05T15:18:49.397Z,-64
2022-09-05T15:21:43.153Z,-63
2022-09-05T15:24:30.255Z,-64
2022-09-05T15:27:04.472Z,-64
2022-09-05T15:29:36.111Z,-63
2022-09-05T15:32:28.962Z,-63
2022-09-05T15:35:00.254Z,-63
2022-09-05T15:37:40.749Z,-64
2022-09-05T15:40:23.049Z,-63
2022-09-05T15:43:02.552Z,-63
2022-09-05T15:45:49.865Z,-64
2022-09-05T15:48:26.540Z,-63
2022-09-05T15:51:18.970Z,-64
2022-09-05T15:53:52.025Z,-63
2022-09-05T15:56:25.227Z,-63
2022-09-05T15:59:01.386Z,-64
2022-09-05T16:01:58.239Z,-60
2022-09-05T16:07:12.183Z,-60
2022-09-05T16:10:43.755Z,-60
2022-09-05T16:10:58.298Z,-61
2022-09-05T16:13:19.707Z,-60
2022-09-05T16:21:23.360Z,-61
2022-09-05T16:23:23.941Z,-60
2022-09-05T16:23:34.273Z,-60
2022-09-05T16:25:29.525Z,-60
2022-09-05T16:28:27.502Z,-60
2022-09-05T16:31:37.252Z,-60
2022-09-05T16:34:16.104Z,-60
2022-09-05T16:37:08.820Z,-60
2022-09-05T16:40:00.021Z,-61
2022-09-05T16:43:12.375Z,-60
2022-09-05T16:46:08.841Z,-61
2022-09-05T16:49:41.551Z,-61
2022-09-05T16:52:17.825Z,-61
2022-09-05T16:55:08.274Z,-61
2022-09-05T16:57:37.784Z,-61
2022-09-05T17:00:10.392Z,-61
2022-09-05T17:02:56.385Z,-61
2022-09-05T17:05:46.809Z,-61
2022-09-05T17:08:29.451Z,-60
2022-09-05T17:11:18.405Z,-61
2022-09-05T17:14:09.548Z,-64
2022-09-05T17:16:54.742Z,-65
2022-09-05T17:19:41.981Z,-63
2022-09-05T17:25:45.947Z,-64
2022-09-05T17:29:35.088Z,-64
2022-09-05T17:29:39.124Z,-64
2022-09-05T17:32:00.577Z,-64
2022-09-05T17:35:21.891Z,-64
2022-09-05T17:38:36.800Z,-63
2022-09-05T17:41:46.541Z,-64
2022-09-05T17:45:22.835Z,-64
2022-09-05T17:47:55.684Z,-64
2022-09-05T17:50:27.985Z,-64
2022-09-05T17:53:26.967Z,-64
2022-09-05T17:55:52.157Z,-64
2022-09-05T17:58:49.472Z,-63
2022-09-05T18:01:28.832Z,-64
2022-09-05T18:04:17.082Z,-64
2022-09-05T18:07:00.711Z,-64
2022-09-05T18:09:37.294Z,-64
2022-09-05T18:13:31.241Z,-64
2022-09-05T18:15:32.661Z,-64
2022-09-05T18:18:08.557Z,-64
2022-09-05T18:24:15.489Z,-64
2022-09-05T18:29:58.647Z,-64
2022-09-05T18:33:33.271Z,-64
2022-09-05T18:36:25.762Z,-64
2022-09-05T18:39:38.100Z,-64
2022-09-05T18:42:33.401Z,-64
2022-09-05T18:45:16.773Z,-64
2022-09-05T18:47:59.704Z,-64
2022-09-05T18:50:40.417Z,-64
2022-09-05T18:53:13.237Z,-64
2022-09-05T18:56:20.105Z,-64
2022-09-05T18:59:14.523Z,-64
2022-09-05T19:02:50.346Z,-64
2022-09-05T19:05:45.622Z,-64
2022-09-05T19:08:31.821Z,-64
2022-09-05T19:11:18.711Z,-64
2022-09-05T19:14:12.688Z,-64
2022-09-05T19:16:48.090Z,-64
2022-09-05T19:19:24.997Z,-64
2022-09-05T19:22:43.815Z,-64
2022-09-05T19:24:49.529Z,-64
2022-09-05T19:29:45.862Z,-64
2022-09-05T19:36:52.399Z,-63
2022-09-05T19:36:54.501Z,-63
2022-09-05T19:37:14.268Z,-63
2022-09-05T19:43:05.889Z,-63
2022-09-05T19:47:10.946Z,-63
2022-09-05T19:47:40.427Z,-63
2022-09-05T19:48:04.014Z,-63
2022-09-05T19:50:35.211Z,-63
2022-09-05T19:53:07.549Z,-63
2022-09-05T19:55:38.778Z,-63
2022-09-05T19:58:20.947Z,-63
2022-09-05T20:01:08.086Z,-63
2022-09-05T20:03:44.024Z,-63
2022-09-05T20:06:30.979Z,-63
2022-09-05T20:09:23.875Z,-63
2022-09-05T20:11:58.652Z,-64
2022-09-05T20:14:35.670Z,-63
2022-09-05T20:17:32.104Z,-64
2022-09-05T20:20:37.405Z,-63
2022-09-05T20:23:10.009Z,-63
2022-09-05T20:25:48.055Z,-63
2022-09-05T20:28:23.788Z,-63
2022-09-05T20:31:19.707Z,-63
2022-09-05T20:34:03.329Z,-62
2022-09-05T20:43:08.810Z,-63
2022-09-05T20:43:14.580Z,-63
2022-09-05T20:43:24.416Z,-64
2022-09-05T20:46:13.665Z,-63
2022-09-05T20:54:08.767Z,-63
2022-09-05T20:54:16.432Z,-63
2022-09-05T20:54:41.300Z,-63
2022-09-05T20:57:20.004Z,-64
2022-09-05T20:59:47.927Z,-63
2022-09-05T21:02:32.752Z,-64
2022-09-05T21:05:20.564Z,-64
2022-09-05T21:08:06.914Z,-64
2022-09-05T21:10:56.912Z,-64
2022-09-05T21:13:37.204Z,-64
2022-09-05T21:16:26.993Z,-63
2022-09-05T21:18:54.491Z,-64
2022-09-05T21:21:32.415Z,-64
2022-09-05T21:24:18.211Z,-64
2022-09-05T21:26:50.296Z,-64
2022-09-05T21:29:32.891Z,-63
2022-09-05T21:32:10.367Z,-63
2022-09-05T21:34:49.479Z,-63
2022-09-05T21:37:19.482Z,-63
2022-09-05T21:39:59.898Z,-64
2022-09-05T21:46:58.573Z,-63
2022-09-05T21:47:49.746Z,-63
2022-09-05T21:48:15.526Z,-63
2022-09-05T21:51:02.666Z,-63
2022-09-05T21:59:14.070Z,-63
2022-09-05T21:59:28.802Z,-64
2022-09-05T21:59:45.310Z,-64
2022-09-05T22:02:16.698Z,-63
2022-09-05T22:04:44.371Z,-63
2022-09-05T22:07:16.292Z,-64
2022-09-05T22:09:46.932Z,-64
2022-09-05T22:12:29.875Z,-63
2022-09-05T22:15:02.539Z,-64
2022-09-05T22:17:47.210Z,-63
2022-09-05T22:20:20.748Z,-64
2022-09-05T22:22:56.256Z,-64
2022-09-05T22:25:34.961Z,-64
2022-09-05T22:28:16.161Z,-64
2022-09-05T22:30:43.750Z,-63
2022-09-05T22:33:12.919Z,-63
2022-09-05T22:35:41.280Z,-63
2022-09-05T22:38:19.281Z,-63
2022-09-05T22:40:47.917Z,-63
2022-09-05T22:43:16.954Z,-63
2022-09-05T22:45:44.439Z,-63
2022-09-05T22:48:15.424Z,-63
2022-09-05T22:50:44.242Z,-63
2022-09-05T22:53:11.737Z,-63
2022-09-05T22:55:43.295Z,-63
2022-09-05T22:58:14.818Z,-63
2022-09-05T23:00:44.188Z,-64
2022-09-05T23:03:11.887Z,-64
2022-09-05T23:05:39.309Z,-64
2022-09-05T23:08:07.619Z,-63
2022-09-05T23:10:37.512Z,-63
2022-09-05T23:13:09.802Z,-63
2022-09-05T23:15:38.011Z,-63
2022-09-05T23:18:05.825Z,-63
2022-09-05T23:20:34.387Z,-63
2022-09-05T23:23:06.906Z,-63
2022-09-05T23:25:36.582Z,-63
2022-09-05T23:28:10.569Z,-63
2022-09-05T23:30:39.601Z,-63
2022-09-05T23:33:09.504Z,-63
2022-09-05T23:35:37.624Z,-63
2022-09-05T23:38:11.205Z,-63
2022-09-05T23:40:39.373Z,-64
2022-09-05T23:43:07.442Z,-64
2022-09-05T23:45:34.998Z,-63
2022-09-05T23:48:02.945Z,-64
2022-09-05T23:50:30.265Z,-63
2022-09-05T23:53:03.572Z,-63
2022-09-05T23:55:32.294Z,-63
2022-09-05T23:57:59.813Z,-64
